Terminal Aerodrome Forecast
Issued by NWS Spokane, WA

Home | Current Version | Previous Version | Text Only | Print | Product List | Glossary On
Versions: 1 2 3 4 5 6 7 8 9 10 11 12 13 14 15 16 17
000
FTUS46 KOTX 081130
TAFEAT
TAF
KEAT 081130Z 0812/0912 29004KT P6SM OVC050
     FM082300 30005KT P6SM VCSH BKN050 OVC100
     FM090200 30005KT 2SM -SN BKN015 OVC030=

USA.gov is the U.S. government's official web portal to all federal, state and local government web resources and services.